Time;durP1;ratioP1;P1;durP2;ratioP2;P2;SDS_P1;SDS_P2;PMS_P1;PMS_P2;Temp;Humidity;BMP_temperature;BMP_pressure;BME280_temperature;BME280_humidity;BME280_pressure;Samples;Min_cycle;Max_cycle;Signal;HPM_P1;HPM_P2
2023/01/26 00:01:31;;;;;;;48.28;16.40;;;-1.00;99.90;;;;;;5009316;28;20033;-76
2023/01/26 00:03:57;;;;;;;48.10;15.63;;;-1.00;99.90;;;;;;5006579;28;20033;-76
2023/01/26 00:06:23;;;;;;;44.25;14.90;;;-1.00;99.90;;;;;;5016347;28;20489;-76
2023/01/26 00:08:54;;;;;;;49.03;16.80;;;-1.00;99.90;;;;;;4986116;28;20176;-77
2023/01/26 00:11:25;;;;;;;;;;;-1.10;99.90;;;;;;4996029;28;20025;-77
2023/01/26 00:13:51;;;;;;;48.88;15.50;;;-1.10;99.90;;;;;;4993157;28;20057;-77
2023/01/26 00:16:18;;;;;;;55.50;18.80;;;-1.00;99.90;;;;;;5005423;28;20111;-76
2023/01/26 00:18:44;;;;;;;53.38;18.50;;;-1.00;99.90;;;;;;4987671;28;20032;-77
2023/01/26 00:21:15;;;;;;;46.70;15.55;;;-1.10;99.90;;;;;;5004068;28;20474;-77
2023/01/26 00:23:41;;;;;;;47.28;16.20;;;-1.00;99.90;;;;;;5009531;28;20037;-76
2023/01/26 00:26:09;;;;;;;49.58;17.80;;;-1.00;99.90;;;;;;4992348;28;20025;-77
2023/01/26 00:28:36;;;;;;;43.05;15.10;;;-1.10;99.90;;;;;;4999204;28;20562;-76
2023/01/26 00:31:04;;;;;;;40.63;13.70;;;-1.10;99.90;;;;;;4990162;28;20057;-77
2023/01/26 00:33:30;;;;;;;52.28;19.05;;;-1.10;99.90;;;;;;4990915;28;20029;-76
2023/01/26 00:35:56;;;;;;;44.08;14.73;;;-1.20;99.90;;;;;;5004180;28;20029;-77
2023/01/26 00:38:22;;;;;;;45.78;15.90;;;-1.00;99.90;;;;;;5005630;28;20066;-77
2023/01/26 00:40:47;;;;;;;43.17;14.07;;;-1.10;99.90;;;;;;5010191;28;20072;-76
2023/01/26 00:43:13;;;;;;;52.38;17.80;;;-1.10;99.90;;;;;;4989232;28;20069;-76
2023/01/26 00:45:38;;;;;;;44.15;15.45;;;-1.10;99.90;;;;;;5016530;28;20026;-77
2023/01/26 00:48:05;;;;;;;50.80;18.30;;;-1.10;99.90;;;;;;4987634;28;20036;-77
2023/01/26 00:50:32;;;;;;;44.92;15.35;;;-1.10;99.90;;;;;;5011360;28;20034;-77
2023/01/26 00:52:57;;;;;;;50.47;17.60;;;-1.10;99.90;;;;;;5017332;28;20030;-78
2023/01/26 00:55:28;;;;;;;49.20;17.33;;;-1.10;99.90;;;;;;5005019;28;20033;-77
2023/01/26 00:57:54;;;;;;;60.78;20.48;;;-1.10;99.90;;;;;;4997492;28;20084;-77
2023/01/26 01:00:19;;;;;;;52.38;17.88;;;-1.10;99.90;;;;;;5010036;28;20033;-77
2023/01/26 01:02:45;;;;;;;43.95;14.45;;;-1.10;99.90;;;;;;5018277;28;20088;-77
2023/01/26 01:05:11;;;;;;;44.38;15.73;;;-1.00;99.90;;;;;;4990594;28;20029;-77
2023/01/26 01:07:37;;;;;;;46.28;16.60;;;-1.10;99.90;;;;;;5009445;28;20041;-77
2023/01/26 01:10:02;;;;;;;39.30;13.07;;;-1.00;99.90;;;;;;5002455;28;20037;-77
2023/01/26 01:12:28;;;;;;;41.63;13.40;;;-1.00;99.90;;;;;;4989190;28;20044;-77
2023/01/26 01:14:54;;;;;;;42.38;15.05;;;-1.10;99.90;;;;;;5006044;28;20390;-78
2023/01/26 01:17:19;;;;;;;37.90;12.52;;;-1.10;99.90;;;;;;4991205;28;20387;-76
2023/01/26 01:19:45;;;;;;;49.55;16.83;;;-1.10;99.90;;;;;;4983428;28;20036;-76
2023/01/26 01:22:11;;;;;;;48.95;15.52;;;-1.10;99.90;;;;;;4988908;28;20036;-77
2023/01/26 01:24:37;;;;;;;34.42;11.93;;;-1.00;99.90;;;;;;5001661;28;20025;-77
2023/01/26 01:27:03;;;;;;;44.85;15.07;;;-1.00;99.90;;;;;;5001025;28;20091;-77
2023/01/26 01:29:28;;;;;;;46.58;16.67;;;-1.00;99.90;;;;;;4985646;28;20042;-76
2023/01/26 01:31:54;;;;;;;42.33;13.73;;;-1.00;99.90;;;;;;5014440;28;20026;-76
2023/01/26 01:34:20;;;;;;;45.72;15.40;;;-1.00;99.90;;;;;;5015734;28;20129;-78
2023/01/26 01:36:46;;;;;;;41.88;14.73;;;-1.00;99.90;;;;;;4998868;28;20028;-76
2023/01/26 01:39:12;;;;;;;41.38;14.98;;;-1.00;99.90;;;;;;5000577;28;20052;-77
2023/01/26 01:41:38;;;;;;;40.85;14.10;;;-1.00;99.90;;;;;;4988988;28;20466;-77
2023/01/26 01:44:17;;;;;;;45.10;15.43;;;-0.90;99.90;;;;;;4986082;28;20030;-77
2023/01/26 01:47:00;;;;;;;40.53;13.48;;;-0.90;99.90;;;;;;5000109;28;20889;-77
2023/01/26 01:49:41;;;;;;;37.05;13.15;;;-0.90;99.90;;;;;;5003154;28;20064;-76
2023/01/26 01:52:11;;;;;;;37.78;13.50;;;-1.00;99.90;;;;;;5003537;28;20537;-77
2023/01/26 01:54:49;;;;;;;35.97;13.15;;;-1.00;99.90;;;;;;4992877;28;20092;-77
2023/01/26 01:57:26;;;;;;;33.95;11.70;;;-0.90;99.90;;;;;;4984534;28;20026;-76
2023/01/26 02:00:13;;;;;;;32.50;11.15;;;-0.90;99.90;;;;;;5003377;28;20385;-77
2023/01/26 02:02:42;;;;;;;33.13;10.63;;;-0.90;99.90;;;;;;4992440;28;20577;-76
2023/01/26 02:05:25;;;;;;;34.00;12.25;;;-0.90;99.90;;;;;;5017507;28;20474;-77
2023/01/26 02:07:53;;;;;;;32.60;10.95;;;-0.90;99.90;;;;;;5003779;28;20041;-77
2023/01/26 02:10:19;;;;;;;32.67;11.85;;;-0.90;99.90;;;;;;5001566;28;20092;-77
2023/01/26 02:12:54;;;;;;;37.63;12.52;;;-0.90;99.90;;;;;;4992169;28;20526;-77
2023/01/26 02:15:20;;;;;;;33.50;11.73;;;-0.90;99.90;;;;;;5017356;28;20044;-77
2023/01/26 02:17:45;;;;;;;31.98;11.23;;;-0.90;99.90;;;;;;5009040;28;20116;-77
2023/01/26 02:20:42;;;;;;;31.40;10.52;;;-0.90;99.90;;;;;;4992920;28;20045;-77
2023/01/26 02:23:43;;;;;;;30.27;10.38;;;-0.90;99.90;;;;;;4988093;28;20039;-79
2023/01/26 02:26:16;;;;;;;29.50;9.85;;;-0.90;99.90;;;;;;4940597;28;20110;-77
2023/01/26 02:28:44;;;;;;;29.42;9.77;;;-0.90;99.90;;;;;;4957157;28;20115;-77
2023/01/26 02:31:11;;;;;;;29.10;9.93;;;-0.90;99.90;;;;;;4924736;28;20143;-76
2023/01/26 02:33:37;;;;;;;28.50;9.60;;;-0.80;99.90;;;;;;4927567;28;20211;-76
2023/01/26 02:36:06;;;;;;;35.10;12.20;;;-0.80;99.90;;;;;;4944535;28;20042;-77
2023/01/26 02:38:43;;;;;;;35.55;11.00;;;-0.90;99.90;;;;;;4949661;28;20026;-77
2023/01/26 02:42:37;;;;;;;30.00;10.60;;;-0.90;99.90;;;;;;4940821;28;20035;-77
2023/01/26 02:44:07;;;;;;;38.03;14.20;;;-0.90;99.90;;;;;;4946552;28;20483;-76
2023/01/26 02:46:33;;;;;;;38.45;14.50;;;-0.90;99.90;;;;;;4950514;28;20035;-76
2023/01/26 02:51:43;;;;;;;35.92;13.65;;;-0.90;99.90;;;;;;4957877;28;20496;-77
2023/01/26 02:55:20;;;;;;;36.42;12.25;;;-0.90;99.90;;;;;;4956288;28;20030;-77
2023/01/26 02:56:56;;;;;;;32.80;11.35;;;-0.90;99.90;;;;;;4944752;28;20035;-77
2023/01/26 02:59:21;;;;;;;30.02;10.00;;;-0.80;99.90;;;;;;4925003;28;20039;-77
2023/01/26 03:01:51;;;;;;;28.67;11.23;;;-0.80;99.90;;;;;;4956751;28;20109;-76
2023/01/26 03:04:17;;;;;;;30.77;10.82;;;-0.80;99.90;;;;;;4988284;28;20025;-76
2023/01/26 03:06:43;;;;;;;34.30;12.05;;;-0.80;99.90;;;;;;4997654;28;20441;-76
2023/01/26 03:09:10;;;;;;;37.75;13.27;;;-0.90;99.90;;;;;;5001338;28;20034;-76
2023/01/26 03:11:42;;;;;;;34.95;12.35;;;-0.90;99.90;;;;;;5003487;28;20372;-76
2023/01/26 03:14:11;;;;;;;26.27;10.55;;;-0.80;99.90;;;;;;5015644;28;20029;-76
2023/01/26 03:16:37;;;;;;;30.23;9.60;;;-0.80;99.90;;;;;;4992207;28;20082;-76
2023/01/26 03:29:47;;;;;;;27.77;9.40;;;-0.70;99.90;;;;;;5000793;28;20045;-76
2023/01/26 03:32:14;;;;;;;28.98;10.35;;;-0.70;99.90;;;;;;4990488;28;20113;-76
2023/01/26 03:34:41;;;;;;;29.92;10.40;;;-0.70;99.90;;;;;;4992588;28;20033;-77
2023/01/26 03:37:07;;;;;;;25.73;9.48;;;-0.70;99.90;;;;;;5022672;28;20022;-76
2023/01/26 03:56:23;;;;;;;26.73;10.13;;;-0.70;99.90;;;;;;5019089;28;20375;-76
2023/01/26 03:58:54;;;;;;;28.52;10.15;;;-0.70;99.90;;;;;;4988894;28;20077;-76
2023/01/26 04:01:27;;;;;;;24.13;8.95;;;-0.60;99.90;;;;;;5002575;28;20121;-75
2023/01/26 04:09:29;;;;;;;34.17;12.93;;;-0.70;99.90;;;;;;5000137;28;20109;-77
2023/01/26 04:11:57;;;;;;;32.75;11.98;;;-0.70;99.90;;;;;;5000010;28;20025;-76
2023/01/26 04:22:46;;;;;;;20.23;6.90;;;-0.50;99.90;;;;;;5000780;28;20034;-76
2023/01/26 04:25:17;;;;;;;17.42;6.32;;;-0.50;99.90;;;;;;5008251;28;20026;-76
2023/01/26 04:27:44;;;;;;;21.35;7.70;;;-0.50;99.90;;;;;;4987947;28;20038;-76
2023/01/26 04:30:12;;;;;;;24.50;8.75;;;-0.50;99.90;;;;;;5006488;28;20034;-76
2023/01/26 04:32:38;;;;;;;21.63;7.13;;;-0.50;99.90;;;;;;5004098;28;20030;-76
2023/01/26 04:35:06;;;;;;;18.83;6.97;;;-0.40;99.90;;;;;;4994690;28;20026;-76
2023/01/26 04:37:33;;;;;;;20.00;7.13;;;-0.40;99.90;;;;;;4987862;28;20052;-76
2023/01/26 04:40:00;;;;;;;18.45;6.72;;;-0.40;99.90;;;;;;5001891;28;20026;-76
2023/01/26 04:42:26;;;;;;;14.90;5.00;;;-0.40;99.90;;;;;;4993919;28;20041;-76
2023/01/26 04:44:53;;;;;;;20.80;7.13;;;-0.40;99.90;;;;;;4990473;28;20087;-76
2023/01/26 04:47:21;;;;;;;20.63;6.85;;;-0.40;99.90;;;;;;4992494;28;20378;-76
2023/01/26 04:49:47;;;;;;;25.40;9.10;;;-0.40;99.90;;;;;;4989848;28;20045;-76
2023/01/26 04:52:15;;;;;;;21.90;7.65;;;-0.50;99.90;;;;;;5004655;28;20030;-76
2023/01/26 04:54:41;;;;;;;21.85;8.27;;;-0.40;99.90;;;;;;5003795;28;20036;-76
2023/01/26 04:57:08;;;;;;;21.48;7.55;;;-0.40;99.90;;;;;;5008649;28;20021;-76
2023/01/26 04:59:35;;;;;;;20.60;7.00;;;-0.40;99.90;;;;;;5004911;28;20030;-76
2023/01/26 05:02:01;;;;;;;18.65;6.85;;;-0.40;99.90;;;;;;4992098;28;20387;-76
2023/01/26 05:04:27;;;;;;;18.92;6.75;;;-0.40;99.90;;;;;;5015613;28;20037;-76
2023/01/26 05:06:53;;;;;;;18.30;7.30;;;-0.40;99.90;;;;;;5009603;28;20034;-75
2023/01/26 05:09:20;;;;;;;16.23;5.80;;;-0.50;99.90;;;;;;5010275;28;20026;-76
2023/01/26 05:11:52;;;;;;;13.90;5.38;;;-0.30;99.90;;;;;;4990256;28;20464;-76
2023/01/26 05:14:36;;;;;;;30.17;11.80;;;-0.40;99.90;;;;;;5005134;28;20498;-75
2023/01/26 05:17:31;;;;;;;25.83;9.68;;;-0.40;99.90;;;;;;4993824;28;20072;-76
2023/01/26 05:20:28;;;;;;;31.05;11.40;;;-0.40;99.90;;;;;;5000813;28;20028;-75
2023/01/26 05:23:04;;;;;;;21.95;8.68;;;-0.40;99.90;;;;;;4983520;28;20022;-76
2023/01/26 05:25:59;;;;;;;25.65;8.65;;;-0.40;99.90;;;;;;5004648;28;20037;-76
2023/01/26 05:28:25;;;;;;;21.02;7.00;;;-0.50;99.90;;;;;;4993618;28;20420;-76
2023/01/26 05:30:51;;;;;;;20.17;6.93;;;-0.40;99.90;;;;;;5004118;28;20091;-76
2023/01/26 05:33:20;;;;;;;23.55;9.13;;;-0.40;99.90;;;;;;5008457;28;20040;-76
2023/01/26 05:35:51;;;;;;;25.58;9.68;;;-0.40;99.90;;;;;;5003997;28;20033;-75
2023/01/26 05:38:17;;;;;;;21.83;7.88;;;-0.40;99.90;;;;;;4999030;28;20021;-76
2023/01/26 05:40:44;;;;;;;21.10;7.18;;;-0.40;99.90;;;;;;4993040;28;20428;-76
2023/01/26 05:43:11;;;;;;;19.55;7.05;;;-0.40;99.90;;;;;;4991543;28;20022;-76
2023/01/26 05:45:47;;;;;;;20.27;7.45;;;-0.40;99.90;;;;;;4998626;28;20061;-75
2023/01/26 05:48:14;;;;;;;23.88;10.10;;;-0.40;99.90;;;;;;5019375;28;20053;-75
2023/01/26 05:50:40;;;;;;;18.23;7.45;;;-0.40;99.90;;;;;;5023236;28;20698;-76
2023/01/26 05:53:12;;;;;;;17.40;6.40;;;-0.40;99.90;;;;;;5037376;28;20036;-76
2023/01/26 05:55:38;;;;;;;18.80;7.47;;;-0.40;99.90;;;;;;5022488;28;20405;-76
2023/01/26 05:58:04;;;;;;;21.38;8.27;;;-0.40;99.90;;;;;;5018933;28;20021;-76
2023/01/26 06:00:29;;;;;;;20.92;7.50;;;-0.40;99.90;;;;;;5019179;28;20473;-76
2023/01/26 06:03:03;;;;;;;17.45;6.75;;;-0.30;99.90;;;;;;5024050;28;20021;-76
2023/01/26 06:05:29;;;;;;;15.93;6.18;;;-0.30;99.90;;;;;;5029763;28;20126;-76
2023/01/26 06:07:55;;;;;;;13.90;5.15;;;-0.30;99.90;;;;;;5040647;28;20036;-75
2023/01/26 06:10:26;;;;;;;16.45;5.57;;;-0.30;99.90;;;;;;5021650;28;20037;-76
2023/01/26 06:13:00;;;;;;;21.73;7.80;;;-0.30;99.90;;;;;;5023173;28;20079;-76
2023/01/26 06:15:38;;;;;;;20.90;6.85;;;-0.40;99.90;;;;;;5041313;28;20436;-76
2023/01/26 06:18:03;;;;;;;16.50;5.88;;;-0.30;99.90;;;;;;5039077;28;20017;-76
2023/01/26 06:20:29;;;;;;;19.17;6.50;;;-0.30;99.90;;;;;;5043998;28;20110;-76
2023/01/26 06:23:01;;;;;;;16.33;6.20;;;-0.30;99.90;;;;;;5020252;28;20440;-76
2023/01/26 06:25:28;;;;;;;16.45;5.68;;;-0.20;99.90;;;;;;5024878;28;20072;-76
2023/01/26 06:27:57;;;;;;;18.75;6.93;;;-0.30;99.90;;;;;;5048768;28;20224;-76
2023/01/26 06:30:27;;;;;;;17.60;6.95;;;-0.30;99.90;;;;;;5058612;28;20036;-76
2023/01/26 06:32:57;;;;;;;21.80;9.02;;;-0.30;99.90;;;;;;5041098;28;20032;-76
2023/01/26 06:35:23;;;;;;;19.48;7.43;;;-0.30;99.90;;;;;;5042474;28;20535;-76
2023/01/26 06:37:51;;;;;;;17.35;5.93;;;-0.30;99.90;;;;;;5043222;28;20167;-76
2023/01/26 06:40:18;;;;;;;17.35;6.38;;;-0.30;99.90;;;;;;5044139;28;20567;-76
2023/01/26 06:42:49;;;;;;;21.52;8.65;;;-0.30;99.90;;;;;;5035311;28;20024;-76
2023/01/26 06:45:19;;;;;;;19.25;8.38;;;-0.30;99.90;;;;;;5041296;28;20024;-76
2023/01/26 06:47:46;;;;;;;13.45;5.32;;;-0.30;99.90;;;;;;5020919;28;20041;-76
2023/01/26 06:50:15;;;;;;;22.90;8.90;;;-0.20;99.90;;;;;;5024953;28;20494;-76
2023/01/26 06:52:43;;;;;;;18.83;7.30;;;-0.30;99.90;;;;;;5019146;28;20021;-76
2023/01/26 06:55:36;;;;;;;18.17;6.72;;;-0.20;99.90;;;;;;5022763;28;20071;-76
2023/01/26 06:58:20;;;;;;;19.13;7.28;;;-0.20;99.90;;;;;;5049727;28;20028;-76
2023/01/26 07:01:05;;;;;;;17.27;6.55;;;-0.20;99.90;;;;;;5037211;28;20063;-76
2023/01/26 07:03:33;;;;;;;18.42;7.03;;;-0.20;99.90;;;;;;5040036;28;20032;-76
2023/01/26 07:05:59;;;;;;;23.50;8.73;;;-0.20;99.90;;;;;;5048452;28;20086;-75
2023/01/26 07:08:24;;;;;;;23.70;9.68;;;-0.20;99.90;;;;;;5037651;28;20040;-75
2023/01/26 07:10:50;;;;;;;23.50;8.63;;;-0.20;99.90;;;;;;5039642;28;20044;-76
2023/01/26 07:13:16;;;;;;;22.05;9.68;;;-0.20;99.90;;;;;;5053984;28;20903;-76
2023/01/26 07:15:41;;;;;;;24.88;9.68;;;-0.20;99.90;;;;;;5043604;28;20040;-76
2023/01/26 07:18:07;;;;;;;24.70;9.57;;;-0.20;99.90;;;;;;5041728;28;20507;-76
2023/01/26 07:20:33;;;;;;;22.67;9.35;;;-0.10;99.90;;;;;;5048075;28;20620;-76
2023/01/26 07:22:59;;;;;;;24.13;9.35;;;-0.20;99.90;;;;;;5032016;28;20021;-76
2023/01/26 07:25:26;;;;;;;24.23;9.70;;;-0.10;99.90;;;;;;5042103;28;20013;-76
2023/01/26 07:27:56;;;;;;;25.05;9.52;;;-0.10;99.90;;;;;;5041566;28;20405;-76
2023/01/26 07:30:22;;;;;;;20.38;8.10;;;-0.10;99.90;;;;;;5024923;28;20045;-76
2023/01/26 07:32:48;;;;;;;24.55;9.27;;;-0.10;99.90;;;;;;5046614;28;20359;-76
2023/01/26 07:35:14;;;;;;;22.02;8.73;;;-0.10;99.90;;;;;;5022069;28;20033;-76
2023/01/26 07:37:39;;;;;;;21.58;10.23;;;-0.10;99.90;;;;;;5026101;28;20021;-76
2023/01/26 07:40:06;;;;;;;28.00;12.05;;;-0.10;99.90;;;;;;5026875;28;20037;-76
2023/01/26 07:42:32;;;;;;;26.38;10.23;;;-0.10;99.90;;;;;;5037168;28;20053;-76
2023/01/26 07:45:04;;;;;;;27.98;9.85;;;-0.10;99.90;;;;;;5023511;28;20558;-76
2023/01/26 07:47:29;;;;;;;22.52;8.77;;;-0.10;99.90;;;;;;5038237;28;20033;-76
2023/01/26 07:49:55;;;;;;;21.65;7.88;;;-0.10;99.90;;;;;;5023322;28;20037;-76
2023/01/26 07:52:21;;;;;;;23.63;8.90;;;-0.10;99.90;;;;;;5047457;28;20417;-76
2023/01/26 07:54:46;;;;;;;26.55;10.57;;;-0.10;99.90;;;;;;5043237;28;20397;-76
2023/01/26 07:57:12;;;;;;;24.20;10.07;;;0.00;99.90;;;;;;5039942;28;20059;-76
2023/01/26 07:59:38;;;;;;;22.08;8.02;;;0.00;99.90;;;;;;5039307;28;20025;-76
2023/01/26 08:02:03;;;;;;;21.08;7.78;;;0.00;99.90;;;;;;5047105;28;20037;-78
2023/01/26 08:04:29;;;;;;;24.35;9.45;;;0.00;99.90;;;;;;5020352;28;20049;-77
2023/01/26 08:06:55;;;;;;;19.83;8.00;;;0.00;99.90;;;;;;5038648;28;20488;-77
2023/01/26 08:09:20;;;;;;;21.00;8.45;;;0.00;99.90;;;;;;5022180;28;20120;-78
2023/01/26 08:11:46;;;;;;;21.23;8.80;;;0.00;99.90;;;;;;5042912;28;20405;-77
2023/01/26 08:14:12;;;;;;;24.10;8.40;;;0.10;99.90;;;;;;5036599;28;20079;-78
2023/01/26 08:16:37;;;;;;;19.25;6.82;;;0.10;99.90;;;;;;5023779;28;20037;-77
2023/01/26 08:19:03;;;;;;;14.38;5.25;;;0.10;99.90;;;;;;5029861;28;20029;-77
2023/01/26 08:21:29;;;;;;;18.05;6.88;;;0.10;99.90;;;;;;5039851;28;20451;-77
2023/01/26 08:23:54;;;;;;;15.05;5.50;;;0.10;99.90;;;;;;5029748;28;20029;-78
2023/01/26 08:26:20;;;;;;;20.02;7.18;;;0.10;99.90;;;;;;5036341;28;20108;-77
2023/01/26 08:28:46;;;;;;;25.10;8.20;;;0.10;99.90;;;;;;5036149;28;20037;-77
2023/01/26 08:31:17;;;;;;;18.77;7.30;;;0.20;99.90;;;;;;5029686;28;20119;-75
2023/01/26 08:33:43;;;;;;;23.95;8.75;;;0.20;99.90;;;;;;5027239;28;20082;-75
2023/01/26 08:36:14;;;;;;;24.38;9.55;;;0.20;99.90;;;;;;5036497;28;20037;-76
2023/01/26 08:38:41;;;;;;;21.92;8.73;;;0.20;99.90;;;;;;5053060;28;20040;-76
2023/01/26 08:41:07;;;;;;;19.48;6.88;;;0.20;99.90;;;;;;5024078;28;20021;-76
2023/01/26 08:43:33;;;;;;;19.45;6.82;;;0.20;99.90;;;;;;5039920;28;20025;-75
2023/01/26 08:45:58;;;;;;;16.33;6.10;;;0.20;99.90;;;;;;5024934;28;20041;-75
2023/01/26 08:48:24;;;;;;;16.95;5.60;;;0.30;99.90;;;;;;5039150;28;20049;-76
2023/01/26 08:51:02;;;;;;;16.88;6.18;;;0.30;99.90;;;;;;5039540;28;20037;-76
2023/01/26 08:53:31;;;;;;;15.38;5.28;;;0.30;99.90;;;;;;5025138;28;20171;-76
2023/01/26 08:55:59;;;;;;;20.08;6.72;;;0.30;99.90;;;;;;5037680;28;20032;-76
2023/01/26 08:58:25;;;;;;;20.10;7.10;;;0.30;99.90;;;;;;5022638;28;20032;-76
2023/01/26 09:00:50;;;;;;;17.25;6.13;;;0.30;99.90;;;;;;5040293;28;20030;-76
2023/01/26 09:03:16;;;;;;;18.48;6.07;;;0.40;99.90;;;;;;5020754;28;20127;-75
2023/01/26 09:05:42;;;;;;;20.15;7.75;;;0.40;99.90;;;;;;5042444;28;20408;-75
2023/01/26 09:08:08;;;;;;;16.02;4.95;;;0.40;99.90;;;;;;5037214;28;20104;-76
2023/01/26 09:10:36;;;;;;;17.20;5.93;;;0.40;99.90;;;;;;5038978;28;20037;-76
2023/01/26 09:13:02;;;;;;;16.83;5.25;;;0.40;99.90;;;;;;5035489;28;20419;-76
2023/01/26 09:15:28;;;;;;;15.13;4.93;;;0.50;99.90;;;;;;5039871;28;20025;-75
2023/01/26 09:17:53;;;;;;;12.40;4.70;;;0.50;99.90;;;;;;5040439;28;20032;-75
2023/01/26 09:20:19;;;;;;;13.00;4.57;;;0.50;99.90;;;;;;5037371;28;20393;-76
2023/01/26 09:22:46;;;;;;;16.10;5.05;;;0.60;99.90;;;;;;5036390;28;20029;-76
2023/01/26 09:25:12;;;;;;;15.13;4.72;;;0.50;99.90;;;;;;5023423;28;20064;-76
2023/01/26 09:27:39;;;;;;;13.30;4.97;;;0.60;99.90;;;;;;5028956;28;20114;-76
2023/01/26 09:30:06;;;;;;;13.57;4.05;;;0.60;99.90;;;;;;5046265;28;20087;-76
2023/01/26 09:32:32;;;;;;;16.17;5.63;;;0.60;99.90;;;;;;5037990;28;20030;-76
2023/01/26 09:34:58;;;;;;;14.48;4.13;;;0.60;99.90;;;;;;5020100;28;20119;-75
2023/01/26 09:37:24;;;;;;;11.93;4.47;;;0.70;99.90;;;;;;5040840;28;20033;-75
2023/01/26 09:39:50;;;;;;;12.98;3.17;;;0.70;99.90;;;;;;5040736;28;20025;-75
2023/01/26 09:42:37;;;;;;;11.07;4.13;;;0.70;99.90;;;;;;5027505;28;20052;-76
2023/01/26 09:45:12;;;;;;;13.43;4.18;;;0.70;99.90;;;;;;5045297;28;20181;-76
2023/01/26 09:47:57;;;;;;;19.17;5.10;;;0.80;99.90;;;;;;5036947;28;20060;-75
2023/01/26 09:50:28;;;;;;;17.60;5.15;;;0.80;99.90;;;;;;5041554;28;20040;-75
2023/01/26 09:53:01;;;;;;;15.18;5.00;;;0.80;99.90;;;;;;5038016;28;20533;-76
2023/01/26 09:55:29;;;;;;;17.13;5.03;;;0.80;99.90;;;;;;5038121;28;20466;-75
2023/01/26 09:57:59;;;;;;;15.40;3.85;;;0.90;99.90;;;;;;5043625;28;20057;-76
2023/01/26 10:00:40;;;;;;;13.88;4.78;;;0.80;99.90;;;;;;5035933;28;20106;-76
2023/01/26 10:03:23;;;;;;;16.42;4.72;;;0.90;99.90;;;;;;5042175;28;20033;-76
2023/01/26 10:06:12;;;;;;;15.73;4.93;;;1.00;99.90;;;;;;5037758;28;20047;-75
2023/01/26 10:09:05;;;;;;;12.70;4.03;;;1.00;99.90;;;;;;5036735;28;20386;-78
2023/01/26 10:11:43;;;;;;;17.45;5.40;;;1.00;99.90;;;;;;5039300;28;20120;-78
2023/01/26 10:14:29;;;;;;;14.60;4.50;;;1.00;99.90;;;;;;5050115;28;20029;-75
2023/01/26 10:16:56;;;;;;;17.45;5.35;;;1.10;99.90;;;;;;5037369;28;20065;-78
2023/01/26 10:19:48;;;;;;;18.75;5.53;;;1.10;99.90;;;;;;5023152;28;20124;-78
2023/01/26 10:22:39;;;;;;;13.98;4.32;;;1.10;99.90;;;;;;5037261;28;20036;-78
2023/01/26 10:25:14;;;;;;;17.00;4.60;;;1.10;99.90;;;;;;5035104;28;20095;-77
2023/01/26 10:27:40;;;;;;;10.80;3.78;;;1.20;99.90;;;;;;5040986;28;20082;-77
2023/01/26 10:30:13;;;;;;;15.85;4.68;;;1.20;99.90;;;;;;5044703;28;20041;-78
2023/01/26 10:32:41;;;;;;;14.30;5.43;;;1.30;99.90;;;;;;5042563;28;20033;-78
2023/01/26 10:35:18;;;;;;;21.45;5.95;;;1.30;99.90;;;;;;5039366;28;20029;-77
2023/01/26 10:37:44;;;;;;;20.13;5.93;;;1.40;99.90;;;;;;5037096;28;20045;-78
2023/01/26 10:40:10;;;;;;;15.40;5.20;;;1.40;99.90;;;;;;5037191;28;20043;-78
2023/01/26 10:42:37;;;;;;;23.65;6.50;;;1.50;99.90;;;;;;5028142;28;20385;-78
2023/01/26 10:45:22;;;;;;;23.65;6.88;;;1.50;99.90;;;;;;5033520;28;20033;-78
2023/01/26 10:48:18;;;;;;;25.20;7.70;;;1.60;99.90;;;;;;5022599;28;20027;-78
2023/01/26 10:50:45;;;;;;;26.83;9.13;;;1.70;99.90;;;;;;5028371;28;20049;-78
2023/01/26 10:53:23;;;;;;;24.33;8.55;;;1.90;99.90;;;;;;5043334;28;20391;-78
2023/01/26 10:55:58;;;;;;;24.92;8.40;;;1.90;99.90;;;;;;5022293;28;20111;-78
2023/01/26 10:58:53;;;;;;;25.08;8.43;;;2.00;99.90;;;;;;5043241;28;20509;-78
2023/01/26 11:01:21;;;;;;;27.95;9.13;;;2.20;99.90;;;;;;5037673;28;20048;-78
2023/01/26 11:04:11;;;;;;;24.45;7.45;;;2.30;99.90;;;;;;5044728;28;20029;-78
2023/01/26 11:06:37;;;;;;;25.00;7.75;;;2.40;99.90;;;;;;5021491;28;20033;-78
2023/01/26 11:09:12;;;;;;;20.48;5.68;;;2.50;99.90;;;;;;5038282;28;20036;-77
2023/01/26 11:11:38;;;;;;;20.90;6.45;;;2.60;99.90;;;;;;5036802;28;20037;-78
2023/01/26 11:14:19;;;;;;;22.27;6.57;;;2.60;99.90;;;;;;5035758;28;21072;-78
2023/01/26 11:16:52;;;;;;;14.68;4.22;;;2.70;99.90;;;;;;5038228;28;20021;-78
2023/01/26 11:19:31;;;;;;;14.45;4.78;;;2.70;99.90;;;;;;5024920;28;20466;-78
2023/01/26 11:22:12;;;;;;;15.73;4.30;;;2.90;99.90;;;;;;5034097;28;20035;-77
2023/01/26 11:24:49;;;;;;;;;;;3.10;99.90;;;;;;5025419;28;20276;-78
2023/01/26 11:27:26;;;;;;;20.40;5.22;;;3.20;99.90;;;;;;5039503;28;19912;-78
2023/01/26 11:30:10;;;;;;;15.30;4.18;;;3.20;99.90;;;;;;5036205;28;20120;-78
2023/01/26 11:33:07;;;;;;;16.35;4.40;;;3.20;99.90;;;;;;5033336;28;20028;-78
2023/01/26 11:35:44;;;;;;;14.88;3.38;;;3.40;99.90;;;;;;5038212;28;20033;-78
2023/01/26 11:38:41;;;;;;;15.15;3.70;;;3.50;99.90;;;;;;5021763;28;20095;-78
2023/01/26 11:41:32;;;;;;;17.10;2.58;;;3.50;99.90;;;;;;5047780;28;20413;-78
2023/01/26 11:44:43;;;;;;;11.68;2.22;;;3.60;99.90;;;;;;5033929;28;20025;-78
2023/01/26 11:47:20;;;;;;;14.23;3.35;;;3.70;99.90;;;;;;5019110;28;20079;-77
2023/01/26 11:50:05;;;;;;;13.90;2.63;;;4.00;99.90;;;;;;5038688;28;20054;-78
2023/01/26 11:52:50;;;;;;;12.63;3.00;;;4.00;99.90;;;;;;5043935;28;20032;-78
2023/01/26 11:55:44;;;;;;;14.65;3.65;;;4.20;99.90;;;;;;5044062;28;20038;-78
2023/01/26 11:58:32;;;;;;;12.93;2.80;;;4.30;99.90;;;;;;5037657;28;20034;-78
2023/01/26 12:01:08;;;;;;;14.57;3.63;;;4.40;99.90;;;;;;5026790;28;20364;-78
2023/01/26 12:03:42;;;;;;;19.92;5.95;;;4.50;99.90;;;;;;5019882;28;20276;-78
2023/01/26 12:06:16;;;;;;;22.42;5.68;;;4.50;99.90;;;;;;5021771;28;20041;-78
2023/01/26 12:09:04;;;;;;;23.42;4.95;;;4.60;99.90;;;;;;5040565;28;20037;-77
2023/01/26 12:11:45;;;;;;;16.63;4.15;;;4.70;99.90;;;;;;5035014;28;20045;-78
2023/01/26 12:14:35;;;;;;;16.52;4.60;;;4.90;99.90;;;;;;5035776;28;20112;-78
2023/01/26 12:17:28;;;;;;;13.57;3.75;;;4.90;99.90;;;;;;5041457;28;20048;-78
2023/01/26 12:20:03;;;;;;;26.33;7.63;;;5.00;99.90;;;;;;5042782;28;20041;-78
2023/01/26 12:22:37;;;;;;;21.95;4.72;;;5.10;99.90;;;;;;5058064;28;20453;-78
2023/01/26 12:25:33;;;;;;;25.00;5.88;;;5.20;99.90;;;;;;5022512;28;20065;-78
2023/01/26 12:28:05;;;;;;;13.70;3.15;;;5.30;99.90;;;;;;5054398;28;20028;-78
2023/01/26 12:30:58;;;;;;;18.25;3.67;;;5.70;99.90;;;;;;5036948;28;20041;-78
2023/01/26 12:33:24;;;;;;;14.25;2.70;;;5.80;99.90;;;;;;5037175;28;20029;-78
2023/01/26 12:36:11;;;;;;;13.90;3.00;;;5.70;99.90;;;;;;5039498;28;20044;-75
2023/01/26 12:39:03;;;;;;;10.30;3.03;;;5.70;99.90;;;;;;5052107;28;20060;-78
2023/01/26 12:42:01;;;;;;;13.95;3.00;;;5.80;99.90;;;;;;5039767;28;20246;-78
2023/01/26 12:44:38;;;;;;;15.48;3.40;;;5.90;99.90;;;;;;5022206;28;20080;-78
2023/01/26 12:47:29;;;;;;;14.93;3.25;;;6.00;99.90;;;;;;5044967;28;20041;-78
2023/01/26 12:50:07;;;;;;;18.45;4.22;;;6.00;99.90;;;;;;5040078;28;20111;-76
2023/01/26 12:52:44;;;;;;;12.35;2.17;;;6.10;99.90;;;;;;5037353;28;20068;-76
2023/01/26 12:55:35;;;;;;;13.07;2.67;;;6.20;99.90;;;;;;5039728;28;20040;-78
2023/01/26 12:58:02;;;;;;;;;;;6.30;99.90;;;;;;5037315;28;20029;-78
2023/01/26 13:00:32;;;;;;;14.35;2.85;;;6.30;99.90;;;;;;5022420;28;20262;-78
2023/01/26 13:03:05;;;;;;;11.73;1.70;;;6.50;99.90;;;;;;5036052;28;20033;-78
2023/01/26 13:05:34;;;;;;;15.45;2.20;;;6.70;99.90;;;;;;5025334;28;20044;-78
2023/01/26 13:08:31;;;;;;;15.95;2.38;;;6.80;99.90;;;;;;5036759;28;20048;-78
2023/01/26 13:11:06;;;;;;;19.52;2.53;;;6.80;99.90;;;;;;5024477;28;20038;-78
2023/01/26 13:13:50;;;;;;;19.88;1.63;;;6.80;99.90;;;;;;5039108;28;20029;-78
2023/01/26 13:16:16;;;;;;;19.77;1.70;;;6.80;99.90;;;;;;5037217;28;20382;-78
2023/01/26 13:18:50;;;;;;;16.52;1.88;;;6.90;99.90;;;;;;5035823;28;20021;-78
2023/01/26 13:21:38;;;;;;;12.85;1.45;;;7.00;99.90;;;;;;5040728;28;20029;-78
2023/01/26 13:24:15;;;;;;;16.85;1.08;;;7.00;99.90;;;;;;5036645;28;20029;-78
2023/01/26 13:26:50;;;;;;;14.15;0.90;;;6.80;99.90;;;;;;5038133;28;20013;-79
2023/01/26 13:29:28;;;;;;;15.25;1.00;;;6.70;99.90;;;;;;5045059;28;20056;-78
2023/01/26 13:31:55;;;;;;;16.48;1.08;;;6.80;99.90;;;;;;5028120;28;20025;-76
2023/01/26 13:34:27;;;;;;;11.38;0.75;;;7.00;99.90;;;;;;5035801;28;20454;-78
2023/01/26 13:36:58;;;;;;;14.55;0.77;;;7.10;99.90;;;;;;5034651;28;20490;-75
2023/01/26 13:39:30;;;;;;;16.05;1.02;;;7.10;99.90;;;;;;5037513;28;20504;-79
2023/01/26 13:41:56;;;;;;;14.35;1.10;;;7.20;99.90;;;;;;5034691;28;20033;-78
2023/01/26 13:44:35;;;;;;;15.35;1.08;;;7.10;99.90;;;;;;5026355;28;20060;-78
2023/01/26 13:47:07;;;;;;;14.88;0.95;;;7.20;99.90;;;;;;5038337;28;20036;-78